createdAt,value
2023-02-04T00:01:43.692Z,93278.84
2023-02-04T00:04:11.401Z,93135.50
2023-02-04T00:06:37.780Z,92994.50
2023-02-04T00:09:04.269Z,92875.25
2023-02-04T00:11:30.668Z,92806.28
2023-02-04T00:13:57.198Z,92781.56
2023-02-04T00:16:23.605Z,92790.09
2023-02-04T00:18:50.032Z,92838.97
2023-02-04T00:21:16.406Z,92914.69
2023-02-04T00:23:42.796Z,93021.94
2023-02-04T00:26:09.160Z,93164.25
2023-02-04T00:28:35.606Z,93316.34
2023-02-04T00:31:01.958Z,93488.25
2023-02-04T00:33:29.042Z,93635.34
2023-02-04T00:35:56.390Z,93819.19
2023-02-04T00:38:22.994Z,94018.41
2023-02-04T00:40:49.353Z,94196.72
2023-02-04T00:43:15.878Z,94354.41
2023-02-04T00:45:42.272Z,94459.84
2023-02-04T00:48:08.633Z,94516.97
2023-02-04T00:50:39.655Z,94579.44
2023-02-04T00:53:06.978Z,94651.50
2023-02-04T00:55:33.461Z,94690.19
2023-02-04T00:58:00.006Z,94697.97
2023-02-04T01:00:26.361Z,94758.16
2023-02-04T01:02:52.815Z,94885.09
2023-02-04T01:05:19.445Z,94981.22
2023-02-04T01:07:45.840Z,95059.91
2023-02-04T01:10:12.337Z,95124.66
2023-02-04T01:12:38.881Z,95223.38
2023-02-04T01:15:05.711Z,95313.63
2023-02-04T01:17:32.066Z,95404.41
2023-02-04T01:19:58.860Z,95475.41
2023-02-04T01:22:25.301Z,95535.00
2023-02-04T01:24:51.705Z,95586.13
2023-02-04T01:27:18.416Z,95614.63
2023-02-04T01:29:44.766Z,95639.00
2023-02-04T01:32:11.164Z,95714.84
2023-02-04T01:34:37.764Z,95728.88
2023-02-04T01:37:04.123Z,95750.50
2023-02-04T01:39:30.456Z,95787.03
2023-02-04T01:41:58.070Z,95811.25
2023-02-04T01:44:24.422Z,95826.56
2023-02-04T01:46:50.800Z,95829.53
2023-02-04T01:49:17.172Z,95837.63
2023-02-04T01:51:43.526Z,95861.16
2023-02-04T01:54:11.973Z,95852.81
2023-02-04T01:56:46.011Z,95860.00
2023-02-04T01:59:13.406Z,95840.22
2023-02-04T02:01:44.834Z,95823.28
2023-02-04T02:04:13.374Z,95821.88
2023-02-04T02:06:41.950Z,95821.41
2023-02-04T02:09:08.413Z,95813.84
2023-02-04T02:11:34.793Z,95797.63
2023-02-04T02:14:01.170Z,95780.47
2023-02-04T02:16:27.675Z,95782.09
2023-02-04T02:18:54.740Z,95768.47
2023-02-04T02:21:32.332Z,95738.69
2023-02-04T02:24:01.108Z,95707.31
2023-02-04T02:26:27.565Z,95657.19
2023-02-04T02:28:54.007Z,95619.59
2023-02-04T02:31:21.252Z,95609.16
2023-02-04T02:33:47.815Z,95589.53
2023-02-04T02:36:15.005Z,95556.03
2023-02-04T02:38:41.569Z,95517.59
2023-02-04T02:41:10.105Z,95500.44
2023-02-04T02:43:36.471Z,95506.66
2023-02-04T02:46:03.154Z,95488.69
2023-02-04T02:48:29.580Z,95475.06
2023-02-04T02:50:55.923Z,95474.63
2023-02-04T02:53:22.488Z,95462.88
2023-02-04T02:55:48.967Z,95463.81
2023-02-04T02:58:26.364Z,95484.06
2023-02-04T03:00:53.059Z,95509.19
2023-02-04T03:03:44.337Z,95486.88
2023-02-04T03:06:14.432Z,95517.44
2023-02-04T03:08:40.890Z,95571.59
2023-02-04T03:11:07.256Z,95643.00
2023-02-04T03:13:34.072Z,95680.69
2023-02-04T03:16:00.481Z,95705.31
2023-02-04T03:18:27.193Z,95695.09
2023-02-04T03:20:53.537Z,95677.16
2023-02-04T03:23:20.106Z,95628.09
2023-02-04T03:25:46.812Z,95623.47
2023-02-04T03:28:13.263Z,95624.41
2023-02-04T03:30:39.761Z,95598.00
2023-02-04T03:33:06.294Z,95608.06
2023-02-04T03:35:32.654Z,95590.84
2023-02-04T03:37:59.001Z,95597.06
2023-02-04T03:40:25.363Z,95536.59
2023-02-04T03:42:51.714Z,95511.00
2023-02-04T03:45:18.058Z,95527.09
2023-02-04T03:47:44.650Z,95568.38
2023-02-04T03:50:13.164Z,95603.09
2023-02-04T03:52:39.932Z,95631.13
2023-02-04T03:55:06.759Z,95653.03
2023-02-04T03:57:33.098Z,95691.25
2023-02-04T03:59:59.462Z,95712.31
2023-02-04T04:02:25.896Z,95717.91
2023-02-04T04:04:52.305Z,95698.91
2023-02-04T04:07:18.662Z,95726.09
2023-02-04T04:09:45.077Z,95738.50
2023-02-04T04:12:11.424Z,95757.69
2023-02-04T04:14:37.772Z,95776.88
2023-02-04T04:17:04.134Z,95772.66
2023-02-04T04:19:32.134Z,95794.44
2023-02-04T04:21:58.688Z,95817.84
2023-02-04T04:24:25.349Z,95838.88
2023-02-04T04:26:51.701Z,95883.34
2023-02-04T04:29:18.029Z,95917.28
2023-02-04T04:31:45.003Z,95972.00
2023-02-04T04:34:11.415Z,95965.16
2023-02-04T04:36:37.756Z,95949.84
2023-02-04T04:39:04.213Z,95921.56
2023-02-04T04:41:30.558Z,95875.97
2023-02-04T04:43:56.892Z,95858.25
2023-02-04T04:46:23.563Z,95849.78
2023-02-04T04:48:50.011Z,95846.50
2023-02-04T04:51:16.354Z,95862.38
2023-02-04T04:53:42.725Z,95874.53
2023-02-04T04:56:09.106Z,95866.06
2023-02-04T04:58:35.485Z,95864.63
2023-02-04T05:01:01.908Z,95868.13
2023-02-04T05:03:28.264Z,95860.50
2023-02-04T05:05:54.634Z,95837.22
2023-02-04T05:08:21.077Z,95801.84
2023-02-04T05:10:47.431Z,95765.50
2023-02-04T05:13:13.864Z,95718.69
2023-02-04T05:15:40.218Z,95673.66
2023-02-04T05:18:06.564Z,95605.06
2023-02-04T05:20:33.213Z,95511.81
2023-02-04T05:23:01.211Z,95435.91
2023-02-04T05:25:28.765Z,95387.41
2023-02-04T05:27:55.336Z,95335.41
2023-02-04T05:30:22.127Z,95281.72
2023-02-04T05:32:48.486Z,95237.53
2023-02-04T05:35:14.820Z,95202.25
2023-02-04T05:37:41.190Z,95150.44
2023-02-04T05:40:08.084Z,95114.09
2023-02-04T05:42:34.509Z,95096.72
2023-02-04T05:45:01.150Z,95076.69
2023-02-04T05:47:27.510Z,95060.16
2023-02-04T05:49:53.848Z,95049.84
2023-02-04T05:52:20.228Z,95047.94
2023-02-04T05:54:46.899Z,95033.84
2023-02-04T05:57:13.237Z,95019.75
2023-02-04T05:59:39.622Z,95025.75
2023-02-04T06:02:05.970Z,95030.06
2023-02-04T06:04:32.405Z,95005.44
2023-02-04T06:06:59.082Z,94960.94
2023-02-04T06:09:25.498Z,94944.38
2023-02-04T06:11:51.875Z,94949.53
2023-02-04T06:14:18.457Z,94949.53
2023-02-04T06:16:44.836Z,94955.38
2023-02-04T06:19:11.245Z,94951.84
2023-02-04T06:21:37.876Z,94941.97
2023-02-04T06:24:05.480Z,94922.41
2023-02-04T06:26:31.919Z,94911.84
2023-02-04T06:28:58.485Z,94902.31
2023-02-04T06:31:25.159Z,94890.91
2023-02-04T06:33:51.637Z,94852.91
2023-02-04T06:36:18.018Z,94809.69
2023-02-04T06:38:44.374Z,94747.50
2023-02-04T06:41:10.747Z,94728.47
2023-02-04T06:43:37.288Z,94706.84
2023-02-04T06:46:03.725Z,94699.41
2023-02-04T06:48:31.187Z,94723.84
2023-02-04T06:50:57.706Z,94781.19
2023-02-04T06:53:24.059Z,94840.09
2023-02-04T06:55:50.474Z,94902.81
2023-02-04T06:58:17.060Z,94980.84
2023-02-04T07:00:43.473Z,95071.09
2023-02-04T07:03:09.820Z,95150.03
2023-02-04T07:05:36.303Z,95222.97
2023-02-04T07:08:02.720Z,95299.19
2023-02-04T07:10:29.322Z,95365.16
2023-02-04T07:12:56.059Z,95411.91
2023-02-04T07:15:22.424Z,95454.31
2023-02-04T07:17:49.073Z,95485.63
2023-02-04T07:20:15.450Z,95519.34
2023-02-04T07:22:42.447Z,95543.69
2023-02-04T07:25:10.030Z,95557.50
2023-02-04T07:27:36.465Z,95570.41
2023-02-04T07:30:02.961Z,95580.72
2023-02-04T07:32:32.750Z,95574.63
2023-02-04T07:35:02.209Z,95575.56
2023-02-04T07:37:29.145Z,95589.16
2023-02-04T07:39:55.516Z,95578.63
2023-02-04T07:42:22.126Z,95550.97
2023-02-04T07:44:48.477Z,95530.97
2023-02-04T07:47:14.841Z,95498.75
2023-02-04T07:49:41.189Z,95457.97
2023-02-04T07:52:07.719Z,95414.50
2023-02-04T07:54:34.057Z,95386.38
2023-02-04T07:57:00.641Z,95343.84
2023-02-04T07:59:27.127Z,95316.16
2023-02-04T08:01:53.609Z,95281.47
2023-02-04T08:04:20.313Z,95247.69
2023-02-04T08:06:46.650Z,95212.03
2023-02-04T08:09:12.997Z,95186.00
2023-02-04T08:11:39.377Z,95159.94
2023-02-04T08:14:05.720Z,95153.72
2023-02-04T08:16:32.157Z,95147.88
2023-02-04T08:18:58.610Z,95139.81
2023-02-04T08:21:24.951Z,95078.22
2023-02-04T08:23:51.284Z,95045.63
2023-02-04T08:26:17.880Z,94982.13
2023-02-04T08:28:44.223Z,94959.84
2023-02-04T08:31:13.369Z,94942.47
2023-02-04T08:33:39.944Z,94932.03
2023-02-04T08:36:07.196Z,94914.78
2023-02-04T08:38:33.623Z,94886.69
2023-02-04T08:41:00.182Z,94860.63
2023-02-04T08:43:27.118Z,94868.22
2023-02-04T08:45:53.473Z,94856.44
2023-02-04T08:48:20.028Z,94865.81
2023-02-04T08:50:46.393Z,94902.59
2023-02-04T08:53:12.781Z,94896.66
2023-02-04T08:55:39.160Z,94935.63
2023-02-04T08:58:05.495Z,94935.81
2023-02-04T09:00:32.204Z,94937.97
2023-02-04T09:02:59.083Z,94951.31
2023-02-04T09:05:25.507Z,94967.75
2023-02-04T09:07:54.836Z,94983.25
2023-02-04T09:10:21.257Z,94981.19
2023-02-04T09:12:48.064Z,94980.81
2023-02-04T09:15:14.473Z,94997.69
2023-02-04T09:17:42.273Z,95003.59
2023-02-04T09:20:10.151Z,95049.00
2023-02-04T09:22:37.746Z,95113.56
2023-02-04T09:25:04.325Z,95168.13
2023-02-04T09:27:30.900Z,95240.19
2023-02-04T09:29:57.248Z,95309.59
2023-02-04T09:32:23.939Z,95375.56
2023-02-04T09:34:50.293Z,95462.25
2023-02-04T09:37:16.696Z,95555.38
2023-02-04T09:39:43.066Z,95670.63
2023-02-04T09:42:14.284Z,95784.88
2023-02-04T09:44:40.711Z,95923.41
2023-02-04T09:47:09.479Z,96059.88
2023-02-04T09:49:35.836Z,96214.81
2023-02-04T09:52:02.239Z,96349.28
2023-02-04T09:54:28.604Z,96431.84
2023-02-04T09:56:54.955Z,96554.78
2023-02-04T09:59:22.536Z,96651.84
2023-02-04T10:01:55.897Z,96820.56
2023-02-04T10:04:22.241Z,96931.81
2023-02-04T10:06:48.576Z,97049.56
2023-02-04T10:09:15.169Z,97137.38
2023-02-04T10:11:42.046Z,97273.44
2023-02-04T10:14:16.639Z,97414.09
2023-02-04T10:16:43.585Z,97565.81
2023-02-04T10:19:13.759Z,97649.06
2023-02-04T10:21:40.603Z,97706.50
2023-02-04T10:24:17.312Z,97702.72
2023-02-04T10:26:43.714Z,97727.44
2023-02-04T10:29:17.170Z,97758.09
2023-02-04T10:31:45.512Z,97861.47
2023-02-04T10:34:22.945Z,97997.94
2023-02-04T10:36:51.398Z,98127.22
2023-02-04T10:39:18.667Z,98229.72
2023-02-04T10:41:55.129Z,98307.63
2023-02-04T10:44:35.893Z,98375.84
2023-02-04T10:47:08.504Z,98441.94
2023-02-04T10:49:34.913Z,98328.16
2023-02-04T10:52:01.373Z,98277.41
2023-02-04T10:54:30.174Z,98278.72
2023-02-04T10:57:02.548Z,98268.94
2023-02-04T10:59:29.129Z,98367.44
2023-02-04T11:01:56.516Z,98469.00
2023-02-04T11:04:23.125Z,98570.34
2023-02-04T11:06:50.528Z,98679.19
2023-02-04T11:09:17.074Z,98750.59
2023-02-04T11:11:47.884Z,98970.38
2023-02-04T11:14:29.222Z,99135.41
2023-02-04T11:17:00.533Z,99172.53
2023-02-04T11:19:53.637Z,99164.38
2023-02-04T11:22:24.505Z,99240.34
2023-02-04T11:24:51.238Z,99207.16
2023-02-04T11:27:23.098Z,99312.22
2023-02-04T11:29:49.634Z,99258.31
2023-02-04T11:32:37.748Z,99272.81
2023-02-04T11:35:24.625Z,99340.34
2023-02-04T11:37:51.026Z,99416.88
2023-02-04T11:40:27.590Z,99423.81
2023-02-04T11:42:58.677Z,99458.19
2023-02-04T11:45:28.125Z,99509.13
2023-02-04T11:47:56.245Z,99583.28
2023-02-04T11:50:33.779Z,99526.63
2023-02-04T11:53:02.029Z,99515.28
2023-02-04T11:55:29.712Z,99662.97
2023-02-04T11:57:56.454Z,99648.34
2023-02-04T12:00:30.221Z,99627.69
2023-02-04T12:02:57.699Z,99617.31
2023-02-04T12:05:35.323Z,99610.63
2023-02-04T12:08:11.780Z,99569.94
2023-02-04T12:10:38.292Z,99584.66
2023-02-04T12:13:12.721Z,99602.94
2023-02-04T12:15:39.175Z,99539.91
2023-02-04T12:18:10.003Z,99522.72
2023-02-04T12:20:37.182Z,99586.78
2023-02-04T12:23:04.231Z,99599.06
2023-02-04T12:25:31.116Z,99550.50
2023-02-04T12:27:57.953Z,99493.22
2023-02-04T12:30:25.383Z,99508.50
2023-02-04T12:32:51.730Z,99535.88
2023-02-04T12:35:18.247Z,99596.44
2023-02-04T12:37:44.687Z,99633.75
2023-02-04T12:40:15.837Z,99608.50
2023-02-04T12:42:42.812Z,99612.50
2023-02-04T12:45:10.336Z,99803.78
2023-02-04T12:47:36.784Z,99815.97
2023-02-04T12:50:04.074Z,99815.66
2023-02-04T12:52:30.423Z,99883.22
2023-02-04T12:54:56.761Z,99903.84
2023-02-04T12:57:23.198Z,99882.03
2023-02-04T12:59:49.646Z,99965.97
2023-02-04T13:02:16.027Z,100054.56
2023-02-04T13:04:42.466Z,100168.41
2023-02-04T13:07:09.271Z,100080.94
2023-02-04T13:09:36.150Z,100089.59
2023-02-04T13:12:03.004Z,100138.84
2023-02-04T13:14:29.350Z,100143.97
2023-02-04T13:16:55.732Z,100172.63
2023-02-04T13:19:22.107Z,100150.72
2023-02-04T13:21:48.510Z,100150.03
2023-02-04T13:24:14.942Z,100178.69
2023-02-04T13:26:41.345Z,100126.81
2023-02-04T13:29:07.745Z,100081.81
2023-02-04T13:31:34.161Z,100059.13
2023-02-04T13:34:00.613Z,100027.00
2023-02-04T13:36:28.356Z,100092.78
2023-02-04T13:38:54.745Z,100141.47
2023-02-04T13:41:21.336Z,100182.06
2023-02-04T13:43:47.692Z,100141.44
2023-02-04T13:46:14.204Z,100275.63
2023-02-04T13:48:40.963Z,100252.25
2023-02-04T13:51:07.345Z,100339.88
2023-02-04T13:53:33.694Z,100394.50
2023-02-04T13:56:01.585Z,100435.06
2023-02-04T13:58:27.972Z,100373.56
2023-02-04T14:00:57.394Z,100520.91
2023-02-04T14:03:24.885Z,100592.03
2023-02-04T14:05:51.424Z,100512.28
2023-02-04T14:08:17.823Z,100455.84
2023-02-04T14:10:44.440Z,100682.03
2023-02-04T14:13:10.794Z,100685.50
2023-02-04T14:15:41.628Z,100528.69
2023-02-04T14:18:09.028Z,100563.38
2023-02-04T14:20:35.900Z,100476.75
2023-02-04T14:23:02.531Z,100447.25
2023-02-04T14:25:29.176Z,100366.66
2023-02-04T14:27:57.323Z,100411.75
2023-02-04T14:30:25.764Z,100360.63
2023-02-04T14:32:52.166Z,100329.38
2023-02-04T14:35:18.800Z,100277.38
2023-02-04T14:37:45.265Z,100260.13
2023-02-04T14:40:12.482Z,100204.56
2023-02-04T14:42:38.906Z,100177.78
2023-02-04T14:45:06.112Z,100233.34
2023-02-04T14:47:32.906Z,100205.59
2023-02-04T14:49:59.287Z,100146.78
2023-02-04T14:52:25.661Z,100174.53
2023-02-04T14:54:52.039Z,100180.75
2023-02-04T14:57:18.480Z,100197.22
2023-02-04T14:59:44.850Z,100244.13
2023-02-04T15:02:11.958Z,100238.97
2023-02-04T15:04:38.478Z,100201.75
2023-02-04T15:07:04.847Z,100212.19
2023-02-04T15:09:31.311Z,100227.88
2023-02-04T15:11:57.723Z,100195.94
2023-02-04T15:14:24.080Z,100138.78
2023-02-04T15:16:50.780Z,100052.31
2023-02-04T15:19:17.688Z,99981.47
2023-02-04T15:21:44.904Z,99910.59
2023-02-04T15:24:11.626Z,99910.75
2023-02-04T15:26:38.160Z,99857.25
2023-02-04T15:29:05.080Z,99822.75
2023-02-04T15:31:31.708Z,99786.53
2023-02-04T15:33:58.120Z,99752.06
2023-02-04T15:36:24.513Z,99684.75
2023-02-04T15:38:51.081Z,99728.13
2023-02-04T15:41:17.511Z,99685.88
2023-02-04T15:43:44.068Z,99662.75
2023-02-04T15:46:10.491Z,99582.50
2023-02-04T15:48:36.865Z,99526.47
2023-02-04T15:51:03.430Z,99515.44
2023-02-04T15:53:29.986Z,99473.28
2023-02-04T15:55:56.318Z,99442.34
2023-02-04T15:58:22.721Z,99395.94
2023-02-04T16:00:49.299Z,99346.06
2023-02-04T16:03:15.641Z,99337.72
2023-02-04T16:05:41.998Z,99326.66
2023-02-04T16:08:08.639Z,99242.34
2023-02-04T16:10:35.256Z,99182.19
2023-02-04T16:13:01.719Z,99133.19
2023-02-04T16:15:28.315Z,99081.69
2023-02-04T16:17:57.587Z,99049.94
2023-02-04T16:20:24.031Z,98995.75
2023-02-04T16:22:50.617Z,98959.72
2023-02-04T16:25:17.019Z,98915.91
2023-02-04T16:27:43.359Z,98891.13
2023-02-04T16:30:10.967Z,98875.69
2023-02-04T16:32:37.961Z,98859.41
2023-02-04T16:35:04.522Z,98834.53
2023-02-04T16:37:31.183Z,98783.84
2023-02-04T16:39:57.593Z,98775.34
2023-02-04T16:42:23.988Z,98759.06
2023-02-04T16:44:50.360Z,98690.16
2023-02-04T16:47:16.804Z,98670.38
2023-02-04T16:49:44.790Z,98651.47
2023-02-04T16:52:11.441Z,98604.06
2023-02-04T16:54:37.795Z,98576.53
2023-02-04T16:57:04.180Z,98573.16
2023-02-04T16:59:30.778Z,98561.13
2023-02-04T17:02:03.079Z,98522.44
2023-02-04T17:04:30.411Z,98537.13
2023-02-04T17:06:57.048Z,98495.91
2023-02-04T17:09:23.469Z,98485.66
2023-02-04T17:11:49.921Z,98467.72
2023-02-04T17:14:16.309Z,98423.00
2023-02-04T17:16:43.296Z,98407.56
2023-02-04T17:19:09.977Z,98380.94
2023-02-04T17:21:39.086Z,98393.91
2023-02-04T17:24:08.733Z,98405.16
2023-02-04T17:26:39.664Z,98373.53
2023-02-04T17:29:11.112Z,98363.19
2023-02-04T17:31:37.680Z,98326.06
2023-02-04T17:34:04.667Z,98326.06
2023-02-04T17:36:31.336Z,98331.97
2023-02-04T17:38:57.808Z,98341.47
2023-02-04T17:41:24.479Z,98350.13
2023-02-04T17:43:50.895Z,98346.72
2023-02-04T17:46:17.273Z,98338.19
2023-02-04T17:48:43.887Z,98348.50
2023-02-04T17:51:10.341Z,98372.72
2023-02-04T17:53:38.745Z,98408.09
2023-02-04T17:56:09.722Z,98386.66
2023-02-04T17:58:37.641Z,98340.19
2023-02-04T18:01:10.085Z,98353.25
2023-02-04T18:03:36.858Z,98345.53
2023-02-04T18:06:15.695Z,98335.44
2023-02-04T18:08:42.255Z,98325.22
2023-02-04T18:11:20.452Z,98316.88
2023-02-04T18:13:48.752Z,98314.38
2023-02-04T18:16:18.325Z,98244.78
2023-02-04T18:18:44.730Z,98219.84
2023-02-04T18:21:19.144Z,98239.72
2023-02-04T18:23:45.994Z,98265.78
2023-02-04T18:26:23.251Z,98299.63
2023-02-04T18:28:49.833Z,98324.75
2023-02-04T18:31:32.014Z,98340.38
2023-02-04T18:33:58.437Z,98363.72
2023-02-04T18:36:27.276Z,98381.03
2023-02-04T18:38:54.261Z,98379.50
2023-02-04T18:41:20.862Z,98343.44
2023-02-04T18:43:50.476Z,98302.28
2023-02-04T18:46:24.008Z,98292.03
2023-02-04T18:49:02.689Z,98282.59
2023-02-04T18:51:31.311Z,98270.66
2023-02-04T18:53:59.996Z,98266.44
2023-02-04T18:56:26.546Z,98269.97
2023-02-04T18:58:52.990Z,98271.81
2023-02-04T19:01:25.494Z,98287.38
2023-02-04T19:03:53.077Z,98271.13
2023-02-04T19:06:29.137Z,98271.22
2023-02-04T19:09:02.436Z,98237.81
2023-02-04T19:11:41.855Z,98175.97
2023-02-04T19:14:15.618Z,98156.25
2023-02-04T19:16:42.235Z,98149.41
2023-02-04T19:19:42.656Z,98142.66
2023-02-04T19:22:19.841Z,98128.94
2023-02-04T19:24:46.613Z,98110.13
2023-02-04T19:27:36.154Z,98093.03
2023-02-04T19:30:23.486Z,98075.06
2023-02-04T19:32:55.622Z,98062.16
2023-02-04T19:35:29.314Z,98057.91
2023-02-04T19:38:00.860Z,98034.72
2023-02-04T19:40:32.192Z,98024.44
2023-02-04T19:43:04.216Z,98008.06
2023-02-04T19:45:30.872Z,97993.44
2023-02-04T19:47:57.678Z,97977.91
2023-02-04T19:50:33.187Z,97974.53
2023-02-04T19:52:59.745Z,97983.97
2023-02-04T19:55:32.237Z,98003.91
2023-02-04T19:58:24.604Z,98023.75
2023-02-04T20:01:09.736Z,98005.72
2023-02-04T20:03:41.203Z,98007.44
2023-02-04T20:06:10.573Z,97992.84
2023-02-04T20:08:41.287Z,97998.03
2023-02-04T20:11:29.086Z,98005.06
2023-02-04T20:13:59.746Z,98015.38
2023-02-04T20:16:39.857Z,97999.09
2023-02-04T20:19:30.836Z,97975.06
2023-02-04T20:21:57.321Z,97982.84
2023-02-04T20:24:23.720Z,97983.72
2023-02-04T20:26:53.503Z,97983.75
2023-02-04T20:29:22.468Z,97984.56
2023-02-04T20:31:49.138Z,97994.13
2023-02-04T20:34:19.430Z,98011.34
2023-02-04T20:36:46.996Z,98025.13
2023-02-04T20:39:28.539Z,98021.72
2023-02-04T20:41:59.312Z,98030.31
2023-02-04T20:44:27.732Z,98037.22
2023-02-04T20:47:20.136Z,98029.50
2023-02-04T20:49:52.943Z,98037.34
2023-02-04T20:52:48.468Z,98041.66
2023-02-04T20:55:23.545Z,98042.53
2023-02-04T20:57:51.757Z,98054.69
2023-02-04T21:00:32.033Z,98075.34
2023-02-04T21:03:18.814Z,98083.16
2023-02-04T21:05:45.236Z,98094.31
2023-02-04T21:08:20.985Z,98096.06
2023-02-04T21:10:47.652Z,98077.19
2023-02-04T21:13:14.060Z,98072.16
2023-02-04T21:15:40.446Z,98056.78
2023-02-04T21:18:07.049Z,98031.88
2023-02-04T21:20:37.080Z,98020.75
2023-02-04T21:23:03.799Z,98007.00
2023-02-04T21:25:30.474Z,98003.63
2023-02-04T21:27:57.152Z,98020.06
2023-02-04T21:30:26.282Z,98027.03
2023-02-04T21:32:52.854Z,98038.16
2023-02-04T21:35:24.428Z,98051.94
2023-02-04T21:37:51.720Z,98050.31
2023-02-04T21:40:22.001Z,98043.41
2023-02-04T21:42:49.207Z,98038.25
2023-02-04T21:45:17.469Z,98033.13
2023-02-04T21:47:44.618Z,98049.50
2023-02-04T21:50:11.132Z,98054.66
2023-02-04T21:52:37.477Z,98046.03
2023-02-04T21:55:04.069Z,98054.69
2023-02-04T21:57:30.466Z,98064.22
2023-02-04T21:59:56.911Z,98077.97
2023-02-04T22:02:25.346Z,98051.31
2023-02-04T22:04:52.221Z,98041.84
2023-02-04T22:07:18.919Z,98044.47
2023-02-04T22:09:45.386Z,98055.66
2023-02-04T22:12:11.948Z,98064.28
2023-02-04T22:14:56.683Z,98070.38
2023-02-04T22:17:23.135Z,98077.28
2023-02-04T22:19:49.490Z,98085.00
2023-02-04T22:22:16.121Z,98085.06
2023-02-04T22:24:42.522Z,98097.97
2023-02-04T22:27:09.113Z,98103.22
2023-02-04T22:29:35.473Z,98104.09
2023-02-04T22:32:01.842Z,98110.97
2023-02-04T22:34:28.399Z,98128.22
2023-02-04T22:36:55.719Z,98145.34
2023-02-04T22:39:22.084Z,98154.81
2023-02-04T22:41:48.454Z,98158.28
2023-02-04T22:44:14.846Z,98151.50
2023-02-04T22:46:41.233Z,98174.69
2023-02-04T22:49:07.692Z,98183.28
2023-02-04T22:51:34.144Z,98183.31
2023-02-04T22:54:01.476Z,98155.81
2023-02-04T22:56:28.026Z,98147.25
2023-02-04T22:58:54.429Z,98155.81
2023-02-04T23:01:20.807Z,98161.88
2023-02-04T23:03:48.411Z,98198.84
2023-02-04T23:06:15.379Z,98205.72
2023-02-04T23:08:41.988Z,98210.88
2023-02-04T23:11:09.347Z,98217.78
2023-02-04T23:13:36.104Z,98233.28
2023-02-04T23:16:02.777Z,98239.28
2023-02-04T23:18:29.142Z,98226.53
2023-02-04T23:20:55.526Z,98205.16
2023-02-04T23:23:21.877Z,98176.91
2023-02-04T23:25:48.258Z,98170.91
2023-02-04T23:28:14.947Z,98170.06
2023-02-04T23:30:41.404Z,98164.97
2023-02-04T23:33:07.934Z,98186.47
2023-02-04T23:35:36.704Z,98189.03
2023-02-04T23:38:03.150Z,98188.22
2023-02-04T23:40:29.704Z,98191.59
2023-02-04T23:42:56.064Z,98215.63
2023-02-04T23:45:22.412Z,98238.00
2023-02-04T23:47:48.965Z,98227.69
2023-02-04T23:50:15.948Z,98231.13
2023-02-04T23:52:43.150Z,98245.69
2023-02-04T23:55:09.620Z,98255.09
2023-02-04T23:57:35.989Z,98248.25
